Weather observations for the past three days for
Neil Armstrong Airport
Metric (Imperial)
Date Time (edt) Wind (kph) Vis. (km) Weather Sky Cond. Temperature (ºC) Relative Humidity Wind Chill (°C) Heat Index (°C) Pressure Precipitation (cm)
Air Dwpt 6 hour altimeter (cm) sea level (mb) 1 hr 3 hr 6 hr
Max. Min.
01 19:15 S 6 16.09 Fair CLR 31 24 66% 37 76.28 0.0
01 18:55 SW 6 16.09 Fair CLR 31 23 62% 35 76.25 0.0
01 18:35 SW 7 16.09 Fair CLR 32 25 67% 39 76.25 0.0
01 18:15 SW 9 16.09 Fair CLR 32 24 63% 38 76.25 0.0
01 17:55 SW 11 16.09 Fair CLR 32 23 59% 37 76.25 0.0
01 17:35 SW 11 16.09 Fair CLR 33 23 56% 38 76.25 0.0
01 17:15 W 7 16.09 Partly Cloudy SCT110 33 23 56% 38 76.25 0.0
01 16:55 W 13 16.09 Mostly Cloudy BKN110 33 22 52% 37 76.25 0.0
01 16:35 SW 7 16.09 Partly Cloudy SCT110 32 23 59% 37 76.28 0.0
01 16:15 SW 15 16.09 Partly Cloudy SCT110 32 23 59% 37 76.28 0.0
01 15:55 SW 11 16.09 Partly Cloudy SCT110 32 23 59% 37 76.25 0.0
01 15:35 SW 15 16.09 Fair CLR 32 23 59% 37 76.25 0.0
01 15:15 SW 17 16.09 Partly Cloudy SCT110 32 23 59% 37 76.28 0.0
01 14:55 SW 15 16.09 Partly Cloudy SCT120 31 23 62% 35 76.3 0.0
01 14:35 SW 15 G 26 16.09 Partly Cloudy SCT120 32 23 59% 37 76.3 0.0
01 14:15 SW 15 16.09 Fair CLR 32 23 59% 37 76.28 0.0
01 13:55 SW 19 16.09 Partly Cloudy SCT110 32 23 59% 37 76.28 0.0
01 13:35 SW 19 16.09 Fair CLR 31 23 62% 35 76.28 0.0
01 13:15 SW 13 16.09 Partly Cloudy SCT120 31 22 59% 35 76.3 0.0
01 12:55 SW 13 16.09 Partly Cloudy SCT110 31 22 59% 35 76.33 0.0
01 12:35 SW 7 16.09 Partly Cloudy SCT110 29 23 70% 33 76.35 0.0
01 12:15 SW 13 16.09 Mostly Cloudy BKN110 29 22 66% 32 76.35 0.0
01 11:55 SW 11 16.09 Mostly Cloudy BKN110 28 22 70% 31 76.35 0.0
01 11:35 W 13 16.09 Mostly Cloudy BKN110 28 22 70% 31 76.35 0.0
01 11:15 SW 17 16.09 Mostly Cloudy BKN110 28 22 70% 31 76.35 0.0
01 10:55 SW 13 16.09 Mostly Cloudy BKN110 27 22 74% 29 76.35 0.0
01 10:38 SW 19 G 26 16.09 Mostly Cloudy BKN110 27 22 74% 29 76.35 0.0
01 10:24 SW 9 16.09 Thunderstorm in Vicinity BKN110 26 22 79% 28 76.35 0.0
01 09:55 SW 17 16.09 Thunderstorm in Vicinity BKN100 26 22 79% 28 76.35 0.0
01 09:35 SW 13 16.09 Partly Cloudy SCT100 25 22 83% 26 76.35 0.0
01 09:15 SW 13 16.09 Mostly Cloudy BKN110 25 22 83% 26 76.35 0.0
01 08:55 SW 11 16.09 Overcast OVC110 24 21 83% 24 76.35 0.0
01 08:35 SW 11 16.09 Overcast OVC100 24 21 83% 24 76.35 0.0
01 08:15 SW 9 16.09 Overcast BKN100 OVC120 23 21 89% 76.35 0.0
01 07:55 SW 9 16.09 Overcast OVC110 23 21 89% 76.35 0.0
01 07:35 SW 9 16.09 Overcast OVC110 23 21 89% 76.33 0.0
01 07:15 SW 11 16.09 Overcast OVC100 23 21 89% 76.3 0.0
01 06:55 SW 11 16.09 Overcast BKN100 OVC120 23 21 89% 76.3 0.0
01 06:35 SW 9 16.09 Overcast BKN100 OVC120 23 21 89% 76.3 0.0
01 06:15 SW 9 16.09 Overcast OVC110 23 21 89% 76.3 0.0
01 05:55 SW 11 16.09 Mostly Cloudy BKN110 23 21 89% 76.28 0.0
01 05:35 SW 9 16.09 Fair CLR 23 21 89% 76.28 0.0
01 05:15 SW 7 16.09 Partly Cloudy SCT110 23 21 89% 76.28 0.0
01 04:55 SW 9 16.09 Partly Cloudy SCT110 23 21 89% 76.28 0.0
01 04:35 S 11 16.09 Partly Cloudy SCT110 23 21 89% 76.25 0.0
01 04:15 S 9 16.09 Overcast OVC100 24 21 83% 24 76.25 0.0
01 03:55 S 11 16.09 Mostly Cloudy BKN110 24 21 83% 24 76.25 0.0
01 03:35 SW 11 16.09 Mostly Cloudy BKN110 24 22 89% 24 76.25 0.0
01 03:15 S 11 16.09 Partly Cloudy SCT110 23 22 94% 76.28 0.0
01 02:55 SW 7 16.09 Mostly Cloudy BKN110 23 22 94% 76.25 0.0
01 02:35 S 7 16.09 Mostly Cloudy BKN110 24 22 89% 24 76.28 0.0
01 02:15 S 6 16.09 Partly Cloudy SCT110 25 22 83% 26 76.28 0.0
01 01:55 S 11 16.09 Partly Cloudy SCT100 25 22 83% 26 76.28 0.0
01 01:35 S 11 16.09 Fair CLR 23 22 94% 76.28 0.0
01 01:15 Calm 16.09 Fair CLR 23 22 94% 76.3 0.0
01 00:55 SE 6 16.09 Fair CLR 24 22 89% 24 76.28 0.0
01 00:35 S 6 16.09 Fair CLR 24 22 89% 24 76.28 0.0
01 00:15 Calm 16.09 Fair CLR 25 21 79% 26 76.25 0.0
31 23:55 S 11 16.09 Fair CLR 25 21 79% 26 76.23 0.0
31 23:35 S 9 16.09 Fair CLR 25 21 79% 26 76.3 0.0
31 23:15 S 6 16.09 Thunderstorm in Vicinity CLR 25 21 79% 26 76.3 0.0
31 22:55 S 15 16.09 Fair CLR 25 21 79% 26 76.25 0.0
31 22:35 S 13 16.09 Fair CLR 25 21 79% 26 76.28 0.0
31 22:15 S 9 16.09 Fair CLR 25 22 83% 26 76.3 0.0
31 21:55 S 9 16.09 Partly Cloudy SCT110 25 22 83% 26 76.3 0.0
31 21:35 SE 9 16.09 Mostly Cloudy BKN110 25 22 83% 26 76.33 0.0
31 21:15 S 7 16.09 Partly Cloudy SCT120 25 22 83% 26 76.33 0.0
31 20:55 SE 7 16.09 Partly Cloudy SCT120 25 23 89% 26 76.33 0.0
31 20:35 Calm 16.09 Partly Cloudy SCT120 25 23 89% 26 76.33 0.0
31 20:15 SE 6 16.09 Partly Cloudy SCT120 26 23 84% 28 76.3 0.0
31 19:35 Calm 16.09 Fair CLR 27 24 84% 30 76.33 0.0
31 19:15 Calm 16.09 Fair CLR 28 24 79% 32 76.3 0.0
31 18:55 SE 6 16.09 Fair CLR 28 23 74% 31 76.3 0.0
31 18:35 Calm 16.09 Fair CLR 28 23 74% 31 76.28 0.0
31 18:15 S 6 16.09 Fair CLR 28 23 74% 31 76.28 0.0
31 17:55 S 7 16.09 Fair CLR 29 23 70% 33 76.28 0.0
31 17:35 S 7 16.09 Fair CLR 28 23 74% 31 76.28 0.0
31 17:15 Calm 16.09 Fair CLR 27 23 79% 30 76.28 0.0
31 16:55 Calm 16.09 Fair CLR 26 23 84% 28 76.28 0.0
31 16:35 Calm 16.09 Partly Cloudy SCT034 SCT065 26 22 79% 28 76.3 0.0
31 16:15 S 6 16.09 Partly Cloudy SCT034 SCT065 SCT090 26 22 79% 28 76.33 0.0
31 15:55 S 6 16.09 Fair CLR 27 22 74% 29 76.35 0.0
31 15:35 SW 6 16.09 Fair CLR 27 22 74% 29 76.38 0.0
31 15:15 SW 9 16.09 Fair CLR 27 22 74% 29 76.38 0.0
31 14:55 SW 11 16.09 Fair CLR 27 22 74% 29 76.38 0.0
31 14:35 SW 11 16.09 Fair CLR 27 22 74% 29 76.43 0.0
31 14:15 W 13 16.09 Fair CLR 27 22 74% 29 76.43 0.0
31 13:55 SW 17 16.09 Fair CLR 28 22 70% 31 76.43 0.0
31 13:35 SW 15 16.09 Fair CLR 28 22 70% 31 76.45 0.0
31 13:15 SW 15 16.09 Fair CLR 28 22 70% 31 76.48 0.0
31 12:55 SW 20 16.09 Fair CLR 28 22 70% 31 76.48 0.0
31 12:35 SW 15 16.09 Fair CLR 28 22 70% 31 76.45 0.0
31 12:15 W 17 16.09 Fair CLR 28 22 70% 31 76.45 0.0
31 11:55 SW 13 16.09 Fair CLR 28 22 70% 31 76.45 0.0
31 11:35 SW 19 G 28 16.09 Fair CLR 28 22 70% 31 76.45 0.0
31 11:15 SW 20 G 26 16.09 Fair CLR 30 22 62% 33 76.45 0.0
31 10:55 SW 17 16.09 Fair CLR 28 22 70% 31 76.45 0.0
31 10:35 SW 15 16.09 Fair CLR 27 21 70% 29 76.43 0.0
31 10:15 SW 11 16.09 Fair CLR 26 21 74% 27 76.43 0.0
31 09:55 SW 13 16.09 Fair CLR 26 20 70% 27 76.43 0.0
31 09:35 SW 9 16.09 Fair CLR 25 20 74% 26 76.43 0.0
31 09:15 SW 7 16.09 Fair CLR 23 20 83% 76.43 0.0
31 08:55 S 7 16.09 Fair CLR 23 20 83% 76.43 0.0
31 08:35 S 7 16.09 Fair CLR 22 20 88% 76.43 0.0
31 08:15 S 6 16.09 Fair CLR 22 20 88% 76.43 0.0
31 07:55 S 7 16.09 Fair CLR 22 19 83% 76.4 0.0
31 07:35 S 7 16.09 Fair CLR 21 19 88% 76.4 0.0
31 07:15 S 7 16.09 Fair CLR 21 19 88% 76.38 0.0
31 06:55 S 6 16.09 Fair CLR 21 19 88% 76.38 0.0
31 06:35 S 6 16.09 Partly Cloudy SCT110 21 19 88% 76.38 0.0
31 06:15 S 9 16.09 Mostly Cloudy BKN110 21 19 88% 76.35 0.0
31 05:55 S 6 16.09 Overcast SCT090 OVC120 21 19 88% 76.35 0.0
31 05:35 Calm 16.09 Light Rain SCT055 SCT090 OVC120 21 19 88% 76.38 0.0
31 05:15 S 6 16.09 Light Rain SCT090 BKN120 21 19 88% 76.38 0.0
31 04:55 Calm 16.09 Fair CLR 21 19 88% 76.38 0.0
31 04:35 Calm 16.09 Fair CLR 21 19 88% 76.38 0.0
31 04:15 Calm 16.09 Fair CLR 21 18 83% 76.38 0.0
31 03:55 Calm 16.09 Fair CLR 21 18 83% 76.38 0.0
31 03:35 Calm 16.09 Fair CLR 21 18 83% 76.38 0.0
31 03:15 Calm 16.09 Partly Cloudy SCT120 21 18 83% 76.38 0.0
31 02:55 Calm 16.09 Fair CLR 21 18 83% 76.4 0.0
31 02:35 Calm 16.09 Fair CLR 21 18 83% 76.4 0.0
31 02:15 Calm 16.09 Fair CLR 21 18 83% 76.43 0.0
31 01:55 S 6 16.09 Fair CLR 21 18 83% 76.4 0.0
31 01:35 S 6 16.09 Fair CLR 21 18 83% 76.43 0.0
31 01:15 SE 7 16.09 Partly Cloudy SCT110 21 18 83% 76.4 0.0
31 00:55 SE 7 16.09 Partly Cloudy SCT110 22 18 78% 76.43 0.0
31 00:35 SE 9 16.09 Fair CLR 21 18 83% 76.4 0.0
31 00:15 SE 7 16.09 Fair CLR 21 18 83% 76.4 0.0
30 23:55 SE 6 16.09 Fair CLR 21 18 83% 76.4 0.0
30 23:35 Calm 16.09 Fair CLR 20 19 94% 76.43 0.0
30 23:15 Calm 16.09 Fair CLR 21 19 88% 76.43 0.0
30 22:55 Calm 16.09 Fair CLR 21 19 88% 76.43 0.0
30 22:35 Calm 16.09 Fair CLR 20 19 94% 76.43 0.0
30 22:15 Calm 16.09 Fair CLR 21 18 83% 76.43 0.0
30 21:55 SE 7 16.09 Fair CLR 21 19 88% 76.4 0.0
30 21:35 SE 7 16.09 Fair CLR 21 19 88% 76.4 0.0
30 21:15 Calm 16.09 Fair CLR 21 19 88% 76.4 0.0
30 20:55 Calm 16.09 Fair CLR 21 20 94% 76.4 0.0
30 20:35 E 6 16.09 Fair CLR 22 20 88% 76.4 0.0
30 20:15 Calm 16.09 Fair CLR 22 21 94% 76.4 0.0
30 19:55 Calm 16.09 Fair CLR 23 21 89% 76.4 0.0
30 19:35 Calm 16.09 Fair CLR 25 19 69% 26 76.4 0.0
30 19:15 Calm 16.09 Mostly Cloudy BKN110 25 19 69% 26 76.4 0.0
30 18:55 Calm 16.09 Mostly Cloudy BKN110 25 20 74% 26 76.4 0.0
30 18:35 SW 9 16.09 Fair CLR 26 18 61% 27 76.38 0.0
30 18:15 SW 13 16.09 Fair CLR 27 19 62% 28 76.35 0.0
30 17:55 SW 13 16.09 Fair CLR 27 18 58% 28 76.35 0.0
30 17:15 SW 17 16.09 Fair CLR 27 21 70% 29 76.35 0.0
30 16:55 S 11 16.09 Fair CLR 26 20 70% 27 76.35 0.0
30 16:35 S 17 16.09 Fair CLR 26 20 70% 27 76.35 0.0
30 16:15 S 19 16.09 Fair CLR 27 20 66% 29 76.33 0.0
30 15:55 S 13 16.09 Partly Cloudy SCT100 26 21 74% 27 76.35 0.0
30 15:35 S 11 16.09 Fair CLR 25 21 79% 26 76.35 0.0
30 15:15 S 9 16.09 Fair CLR 23 20 83% 76.4 0.0
30 14:55 S 9 16.09 Mostly Cloudy SCT023 SCT031 BKN049 23 20 83% 76.43 0.0
30 14:35 SE 6 16.09 Light Rain SCT021 BKN050 OVC085 23 21 89% 76.5 0.0
30 14:15 Calm 16.09 Mostly Cloudy SCT041 SCT075 BKN090 24 20 78% 24 76.58 0.0
30 13:55 Calm 16.09 Partly Cloudy SCT120 25 20 74% 26 76.61 0.0
30 13:35 Calm 16.09 Mostly Cloudy BKN120 25 20 74% 26 76.63 0.0
30 13:15 Calm 16.09 Partly Cloudy SCT120 24 20 78% 24 76.63 0.0
30 12:55 Calm 16.09 Partly Cloudy SCT120 23 20 83% 76.63 0.0
30 12:35 Calm 16.09 Partly Cloudy SCT110 23 20 83% 76.63 0.0
30 12:15 Calm 16.09 Overcast OVC110 23 20 83% 76.66 0.0
30 11:55 Calm 16.09 Overcast OVC110 22 20 88% 76.66 0.0
30 11:35 Calm 16.09 Overcast OVC120 22 20 88% 76.63 0.0
30 11:15 Calm 16.09 Mostly Cloudy BKN110 22 20 88% 76.61 0.0
30 10:55 Calm 16.09 Partly Cloudy SCT110 22 19 83% 76.53 0.0
30 10:35 Calm 16.09 Fair CLR 22 19 83% 76.5 0.0
30 10:15 Calm 16.09 Fair CLR 22 18 78% 76.5 0.0
30 09:55 S 7 16.09 Fair CLR 22 18 78% 76.48 0.0
30 09:35 S 9 16.09 Fair CLR 21 18 83% 76.48 0.0
30 09:15 S 9 16.09 Fair CLR 21 18 83% 76.45 0.0
30 08:55 S 7 16.09 Fair CLR 20 18 88% 76.48 0.0
30 08:35 S 9 16.09 Partly Cloudy SCT110 20 18 88% 76.45 0.0
30 08:15 S 6 16.09 Mostly Cloudy SCT044 SCT060 BKN110 20 18 88% 76.48 0.0
30 07:55 S 6 16.09 Overcast OVC110 19 17 88% 76.5 0.0
30 07:35 Calm 16.09 Overcast OVC110 18 17 94% 76.53 0.0
30 07:15 Calm 16.09 Overcast OVC100 18 17 94% 76.53 0.0
30 06:55 Calm 16.09 Overcast OVC110 18 17 94% 76.53 0.0
30 06:35 Calm 16.09 Overcast OVC110 18 17 94% 76.5 0.0
30 06:15 Calm 16.09 Mostly Cloudy BKN110 18 17 94% 76.5 0.0
30 05:55 Calm 16.09 Partly Cloudy SCT110 18 17 94% 76.48 0.0
30 05:35 Calm 16.09 Partly Cloudy SCT110 18 17 94% 76.48 0.0
30 05:15 S 6 16.09 Partly Cloudy SCT110 18 17 94% 76.45 0.0
30 04:55 S 6 16.09 Partly Cloudy SCT120 18 17 94% 76.48 0.0
30 04:35 S 7 16.09 Overcast OVC120 19 17 88% 76.48 0.0
30 04:15 S 6 16.09 Overcast SCT095 OVC110 19 17 88% 76.48 0.0
30 03:55 Calm 16.09 Light Rain SCT090 BKN120 19 17 88% 76.5 0.0
30 03:35 Calm 16.09 Partly Cloudy SCT120 18 17 94% 76.5 0.0
30 03:15 Calm 16.09 Partly Cloudy SCT110 18 17 94% 76.5 0.0
30 02:55 Calm 16.09 Mostly Cloudy BKN110 18 17 94% 76.5 0.0
30 02:35 Calm 16.09 Partly Cloudy SCT110 18 17 94% 76.53 0.0
30 02:15 Calm 16.09 Fair CLR 17 17 100% 76.53 0.0
30 01:55 Calm 16.09 Partly Cloudy SCT120 17 17 100% 76.53 0.0
30 01:35 Calm 16.09 Partly Cloudy SCT120 17 16 94% 76.53 0.0
30 01:15 Calm 16.09 Fair CLR 17 16 94% 76.53 0.0
30 00:55 Calm 16.09 Fair CLR 17 17 100% 76.53 0.0
30 00:35 Calm 16.09 Fair CLR 17 17 100% 76.53 0.0
30 00:15 Calm 16.09 Fair CLR 17 17 100% 76.53 0.0
29 23:55 Calm 16.09 Fair CLR 18 17 94% 76.53 0.0
29 23:35 Calm 16.09 Fair CLR 18 17 94% 76.5 0.0
29 23:15 Calm 16.09 Fair CLR 18 18 100% 76.53 0.0
29 22:55 Calm 16.09 Fair CLR 18 18 100% 76.53 0.0
29 22:35 Calm 16.09 Fair CLR 19 18 94% 76.53 0.0
29 22:15 Calm 16.09 Fair CLR 19 18 94% 76.53 0.0
29 21:55 Calm 16.09 Fair CLR 20 18 88% 76.5 0.0
29 21:35 Calm 16.09 Fair CLR 20 18 88% 76.5 0.0
29 21:15 Calm 16.09 Fair CLR 20 19 94% 76.48 0.0
29 20:55 Calm 16.09 Fair CLR 20 19 94% 76.48 0.0
29 20:35 Calm 16.09 Fair CLR 22 20 88% 76.5 0.0
29 20:15 Calm 16.09 Fair CLR 22 20 88% 76.5 0.0
29 19:55 Calm 16.09 Fair CLR 23 20 83% 76.5 0.0
29 19:35 Calm 16.09 Fair CLR 24 20 78% 24 76.5 0.0
Date Time (edt) Wind (kph) Vis. (km) Weather Sky Cond. Air Dwpt Max. Min. Relative Humidity Wind Chill (°C) Heat Index (°C) altimeter (cm) sea level (mb) 1 hr 3 hr 6 hr
6 hour
Temperature (ºC) Pressure Precipitation (cm)